Time;durP1;ratioP1;P1;durP2;ratioP2;P2;SDS_P1;SDS_P2;PMS_P1;PMS_P2;Temp;Humidity;BMP_temperature;BMP_pressure;BME280_temperature;BME280_humidity;BME280_pressure;Samples;Min_cycle;Max_cycle;Signal;HPM_P1;HPM_P2
2022/05/11 00:01:50;;;;;;;5.18;3.90;;;;;;;;;;5014116;28;20021;-75
2022/05/11 00:04:16;;;;;;;8.35;3.80;;;;;;;;;;5014128;28;20037;-75
2022/05/11 00:06:42;;;;;;;7.28;4.03;;;;;;;;;;5012745;28;20021;-76
2022/05/11 00:09:09;;;;;;;6.10;3.80;;;;;;;;;;5013931;28;20109;-75
2022/05/11 00:11:36;;;;;;;4.63;3.90;;;;;;;;;;5013906;28;20030;-75
2022/05/11 00:14:02;;;;;;;7.63;3.88;;;;;;;;;;5013924;28;20107;-75
2022/05/11 00:16:28;;;;;;;4.20;3.60;;;;;;;;;;5013806;28;20479;-76
2022/05/11 00:18:54;;;;;;;6.60;3.97;;;;;;;;;;5013765;28;20084;-75
2022/05/11 00:21:20;;;;;;;5.53;3.90;;;;;;;;;;5013750;28;20112;-75
2022/05/11 00:23:46;;;;;;;4.63;3.85;;;;;;;;;;5013960;28;20029;-75
2022/05/11 00:26:11;;;;;;;7.30;4.20;;;;;;;;;;5013941;28;20033;-75
2022/05/11 00:28:36;;;;;;;8.32;4.07;;;;;;;;;;5013547;28;20160;-75
2022/05/11 00:31:02;;;;;;;7.23;4.10;;;;;;;;;;5013524;28;20034;-75
2022/05/11 00:33:28;;;;;;;10.65;3.97;;;;;;;;;;5013806;28;20291;-75
2022/05/11 00:35:53;;;;;;;6.07;3.90;;;;;;;;;;5013991;28;20048;-74
2022/05/11 00:38:21;;;;;;;6.47;4.20;;;;;;;;;;5012249;28;20022;-74
2022/05/11 00:40:54;;;;;;;5.63;3.67;;;;;;;;;;5013792;28;20064;-75
2022/05/11 00:43:34;;;;;;;6.65;3.97;;;;;;;;;;5014009;28;20372;-75
2022/05/11 00:46:11;;;;;;;4.53;3.70;;;;;;;;;;5013716;28;20025;-76
2022/05/11 00:51:20;;;;;;;;;;;;;;;;;;5013902;28;20045;-76
2022/05/11 00:53:52;;;;;;;4.10;3.67;;;;;;;;;;5013606;28;19910;-76
2022/05/11 00:56:17;;;;;;;6.05;4.10;;;;;;;;;;5013741;28;20390;-76
2022/05/11 00:59:04;;;;;;;6.93;4.00;;;;;;;;;;5013464;28;20018;-75
2022/05/11 01:01:29;;;;;;;6.18;4.13;;;;;;;;;;5013559;28;20313;-74
2022/05/11 01:04:07;;;;;;;6.82;4.18;;;;;;;;;;5013661;28;20025;-75
2022/05/11 01:06:33;;;;;;;7.20;4.15;;;;;;;;;;4996685;28;20030;-75
2022/05/11 01:09:00;;;;;;;6.97;4.07;;;;;;;;;;5017721;28;20053;-75
2022/05/11 01:11:26;;;;;;;5.72;3.75;;;;;;;;;;5017267;28;20104;-75
2022/05/11 01:13:52;;;;;;;6.57;4.20;;;;;;;;;;5017269;28;20546;-75
2022/05/11 01:16:17;;;;;;;5.82;4.28;;;;;;;;;;5017079;28;20036;-75
2022/05/11 01:18:43;;;;;;;5.55;4.30;;;;;;;;;;5017076;28;20423;-75
2022/05/11 01:21:08;;;;;;;7.57;4.43;;;;;;;;;;5015726;28;20109;-75
2022/05/11 01:23:51;;;;;;;6.90;4.40;;;;;;;;;;5016867;28;20034;-75
2022/05/11 01:26:18;;;;;;;10.18;4.57;;;;;;;;;;5017062;28;20025;-75
2022/05/11 01:28:46;;;;;;;6.88;4.45;;;;;;;;;;5017021;28;20060;-75
2022/05/11 01:31:12;;;;;;;7.13;4.20;;;;;;;;;;5016837;28;20030;-75
2022/05/11 01:33:42;;;;;;;10.07;4.30;;;;;;;;;;5016680;28;20037;-75
2022/05/11 01:36:30;;;;;;;5.47;4.65;;;;;;;;;;5015333;28;20496;-75
2022/05/11 01:38:59;;;;;;;5.43;4.22;;;;;;;;;;5016890;28;20021;-74
2022/05/11 01:41:41;;;;;;;4.72;4.28;;;;;;;;;;5017064;28;20080;-74
2022/05/11 01:44:16;;;;;;;5.53;4.47;;;;;;;;;;5017038;28;20025;-74
2022/05/11 01:46:46;;;;;;;5.63;4.28;;;;;;;;;;5016395;28;20026;-75
2022/05/11 01:49:11;;;;;;;6.47;4.28;;;;;;;;;;5016291;28;20029;-74
2022/05/11 01:51:37;;;;;;;6.97;4.50;;;;;;;;;;5016157;28;20384;-74
2022/05/11 01:54:02;;;;;;;5.47;4.10;;;;;;;;;;5016308;28;20029;-74
2022/05/11 01:56:28;;;;;;;7.45;4.63;;;;;;;;;;5014958;28;20506;-74
2022/05/11 01:58:54;;;;;;;6.03;4.50;;;;;;;;;;5016252;28;20156;-75
2022/05/11 02:01:22;;;;;;;8.65;4.30;;;;;;;;;;5014990;28;20475;-74
2022/05/11 02:03:48;;;;;;;5.82;4.85;;;;;;;;;;5016310;28;20506;-75
2022/05/11 02:08:57;;;;;;;;;;;;;;;;;;5016667;28;20024;-74
2022/05/11 02:11:23;;;;;;;6.00;4.50;;;;;;;;;;5016339;28;20354;-75
2022/05/11 02:13:48;;;;;;;5.85;4.43;;;;;;;;;;5016205;28;20156;-75
2022/05/11 02:16:14;;;;;;;7.22;4.80;;;;;;;;;;5016498;28;20025;-75
2022/05/11 02:18:39;;;;;;;6.68;4.75;;;;;;;;;;5015364;28;20037;-74
2022/05/11 02:21:07;;;;;;;5.97;4.57;;;;;;;;;;5016184;28;20030;-76
2022/05/11 02:23:33;;;;;;;5.68;4.47;;;;;;;;;;5016485;28;20113;-74
2022/05/11 02:25:58;;;;;;;7.53;4.47;;;;;;;;;;5016812;28;20068;-75
2022/05/11 02:28:23;;;;;;;5.43;4.93;;;;;;;;;;5014979;28;20531;-75
2022/05/11 02:30:51;;;;;;;6.43;4.80;;;;;;;;;;5016442;28;20114;-75
2022/05/11 02:33:17;;;;;;;7.63;4.45;;;;;;;;;;5016437;28;20472;-75
2022/05/11 02:35:43;;;;;;;6.05;4.78;;;;;;;;;;5015999;28;20084;-74
2022/05/11 02:38:12;;;;;;;7.05;4.63;;;;;;;;;;5015685;28;20399;-75
2022/05/11 02:40:38;;;;;;;6.10;4.60;;;;;;;;;;5015634;28;20108;-75
2022/05/11 02:43:04;;;;;;;6.75;4.72;;;;;;;;;;5015375;28;20021;-75
2022/05/11 02:45:32;;;;;;;5.72;4.90;;;;;;;;;;5015226;28;20026;-74
2022/05/11 02:47:58;;;;;;;7.15;4.70;;;;;;;;;;5013964;28;20395;-75
2022/05/11 02:50:32;;;;;;;5.97;4.68;;;;;;;;;;5014968;28;20026;-75
2022/05/11 02:52:58;;;;;;;6.03;4.80;;;;;;;;;;5015428;28;20509;-75
2022/05/11 02:55:24;;;;;;;7.68;5.47;;;;;;;;;;5015219;28;20074;-74
2022/05/11 02:57:49;;;;;;;5.93;5.20;;;;;;;;;;5015203;28;20479;-75
2022/05/11 03:00:17;;;;;;;6.50;4.90;;;;;;;;;;5015405;28;20471;-75
2022/05/11 03:02:42;;;;;;;6.07;5.10;;;;;;;;;;5014942;28;20259;-75
2022/05/11 03:05:12;;;;;;;5.88;4.85;;;;;;;;;;5015033;28;20028;-75
2022/05/11 03:07:37;;;;;;;6.53;4.68;;;;;;;;;;5014943;28;20018;-75
2022/05/11 03:10:03;;;;;;;5.72;4.70;;;;;;;;;;5015132;28;20049;-75
2022/05/11 03:12:28;;;;;;;5.50;4.38;;;;;;;;;;5014711;28;20398;-75
2022/05/11 03:14:54;;;;;;;6.90;4.80;;;;;;;;;;5015344;28;20029;-75
2022/05/11 03:17:20;;;;;;;6.93;4.90;;;;;;;;;;5015305;28;20034;-75
2022/05/11 03:19:45;;;;;;;6.10;5.03;;;;;;;;;;5014704;28;20034;-74
2022/05/11 03:22:11;;;;;;;8.00;5.00;;;;;;;;;;5014679;28;20028;-75
2022/05/11 03:24:36;;;;;;;8.30;4.90;;;;;;;;;;5013547;28;20075;-75
2022/05/11 03:27:01;;;;;;;8.20;5.28;;;;;;;;;;5014852;28;20021;-75
2022/05/11 03:29:26;;;;;;;7.57;5.13;;;;;;;;;;5012946;28;20033;-75
2022/05/11 03:34:38;;;;;;;10.05;4.68;;;;;;;;;;5014804;28;20045;-75
2022/05/11 03:37:10;;;;;;;6.88;5.13;;;;;;;;;;5014345;28;20030;-74
2022/05/11 03:39:35;;;;;;;8.98;5.30;;;;;;;;;;5014361;28;20021;-75
2022/05/11 03:42:01;;;;;;;7.70;5.10;;;;;;;;;;5014289;28;20041;-74
2022/05/11 03:44:28;;;;;;;9.07;5.18;;;;;;;;;;5014262;28;20430;-75
2022/05/11 03:46:53;;;;;;;7.00;5.13;;;;;;;;;;5014205;28;20026;-75
2022/05/11 03:49:18;;;;;;;7.75;4.68;;;;;;;;;;5014402;28;20396;-75
2022/05/11 03:51:44;;;;;;;10.27;5.43;;;;;;;;;;5014142;28;20072;-74
2022/05/11 03:54:09;;;;;;;8.18;5.03;;;;;;;;;;5014523;28;20314;-75
2022/05/11 03:56:35;;;;;;;8.23;5.30;;;;;;;;;;5014372;28;20025;-75
2022/05/11 03:59:01;;;;;;;11.38;5.32;;;;;;;;;;5013182;28;20053;-74
2022/05/11 04:01:26;;;;;;;8.73;5.38;;;;;;;;;;5014043;28;20044;-74
2022/05/11 04:03:51;;;;;;;7.43;4.57;;;;;;;;;;5014632;28;20514;-74
2022/05/11 04:06:17;;;;;;;5.97;4.80;;;;;;;;;;5014260;28;20072;-75
2022/05/11 04:08:42;;;;;;;6.10;5.07;;;;;;;;;;5014049;28;20064;-73
2022/05/11 04:11:08;;;;;;;10.70;5.40;;;;;;;;;;5012749;28;20460;-74
2022/05/11 04:13:33;;;;;;;7.60;5.20;;;;;;;;;;5014305;28;20685;-75
2022/05/11 04:15:58;;;;;;;7.40;5.20;;;;;;;;;;5014178;28;20072;-75
2022/05/11 04:18:24;;;;;;;6.20;4.95;;;;;;;;;;5013946;28;20065;-74
2022/05/11 04:20:49;;;;;;;15.83;4.70;;;;;;;;;;5014033;28;20068;-74
2022/05/11 04:23:14;;;;;;;9.27;5.23;;;;;;;;;;5013880;28;20264;-75
2022/05/11 04:25:39;;;;;;;7.45;5.32;;;;;;;;;;5013775;28;20354;-75
2022/05/11 04:28:11;;;;;;;5.40;4.85;;;;;;;;;;5013768;28;20030;-75
2022/05/11 04:30:36;;;;;;;7.53;5.30;;;;;;;;;;5013484;28;20022;-75
2022/05/11 04:33:01;;;;;;;9.63;5.03;;;;;;;;;;5013430;28;20113;-75
2022/05/11 04:35:34;;;;;;;10.50;4.90;;;;;;;;;;5013600;28;20387;-75
2022/05/11 04:38:00;;;;;;;6.20;4.82;;;;;;;;;;5013746;28;20275;-75
2022/05/11 04:40:27;;;;;;;6.13;4.55;;;;;;;;;;5013454;28;20033;-74
2022/05/11 04:42:52;;;;;;;8.05;4.55;;;;;;;;;;5011802;28;20061;-76
2022/05/11 04:45:18;;;;;;;8.32;4.80;;;;;;;;;;5013889;28;20478;-74
2022/05/11 04:47:43;;;;;;;12.40;4.97;;;;;;;;;;5013721;28;20034;-74
2022/05/11 04:50:11;;;;;;;8.27;4.80;;;;;;;;;;5013476;28;20449;-74
2022/05/11 04:52:36;;;;;;;12.00;4.78;;;;;;;;;;5013245;28;20037;-74
2022/05/11 04:55:03;;;;;;;7.17;4.60;;;;;;;;;;5014281;28;20030;-74
2022/05/11 04:57:28;;;;;;;7.90;4.82;;;;;;;;;;5014255;28;20291;-75
2022/05/11 04:59:53;;;;;;;14.07;5.50;;;;;;;;;;5013971;28;20044;-75
2022/05/11 05:02:22;;;;;;;9.68;4.80;;;;;;;;;;5013742;28;20330;-75
2022/05/11 05:04:48;;;;;;;14.23;5.20;;;;;;;;;;5013582;28;20100;-75
2022/05/11 05:07:14;;;;;;;9.60;4.90;;;;;;;;;;5014247;28;20068;-75
2022/05/11 05:09:39;;;;;;;13.25;4.80;;;;;;;;;;5014009;28;20025;-75
2022/05/11 05:12:05;;;;;;;9.38;4.75;;;;;;;;;;5013799;28;20372;-75
2022/05/11 05:14:30;;;;;;;8.80;5.20;;;;;;;;;;5014328;28;20049;-74
2022/05/11 05:17:03;;;;;;;9.80;4.70;;;;;;;;;;5014422;28;20475;-75
2022/05/11 05:19:29;;;;;;;8.13;5.23;;;;;;;;;;5013781;28;20745;-74
2022/05/11 05:21:54;;;;;;;11.98;5.00;;;;;;;;;;5013215;28;20037;-75
2022/05/11 05:24:20;;;;;;;6.93;4.47;;;;;;;;;;5013325;28;20105;-75
2022/05/11 05:26:45;;;;;;;9.20;5.13;;;;;;;;;;5013094;28;20107;-74
2022/05/11 05:31:54;;;;;;;11.02;4.97;;;;;;;;;;5012825;28;20294;-74
2022/05/11 05:34:19;;;;;;;7.77;5.03;;;;;;;;;;5013361;28;20061;-75
2022/05/11 05:36:44;;;;;;;8.87;5.10;;;;;;;;;;5013411;28;20313;-74
2022/05/11 05:39:09;;;;;;;9.65;5.03;;;;;;;;;;5013472;28;20314;-75
2022/05/11 05:41:35;;;;;;;7.90;5.15;;;;;;;;;;5012791;28;20096;-75
2022/05/11 05:44:00;;;;;;;13.20;4.80;;;;;;;;;;5012787;28;20030;-74
2022/05/11 05:46:26;;;;;;;7.82;5.03;;;;;;;;;;5012988;28;20796;-74
2022/05/11 05:48:52;;;;;;;12.15;5.60;;;;;;;;;;5012764;28;20113;-75
2022/05/11 05:51:19;;;;;;;5.78;4.90;;;;;;;;;;5012908;28;20026;-75
2022/05/11 05:53:45;;;;;;;12.13;4.90;;;;;;;;;;5015585;28;20041;-77
2022/05/11 05:56:12;;;;;;;7.57;5.03;;;;;;;;;;5016547;28;20053;-74
2022/05/11 05:58:37;;;;;;;5.85;4.82;;;;;;;;;;5016357;28;20038;-74
2022/05/11 06:01:04;;;;;;;8.65;4.65;;;;;;;;;;5016520;28;20439;-74
2022/05/11 06:03:32;;;;;;;7.53;4.57;;;;;;;;;;5016307;28;20468;-75
2022/05/11 06:05:57;;;;;;;6.07;4.65;;;;;;;;;;5016621;28;20026;-76
2022/05/11 06:08:23;;;;;;;5.57;4.60;;;;;;;;;;5016551;28;20045;-75
2022/05/11 06:10:51;;;;;;;8.80;4.78;;;;;;;;;;5016149;28;20251;-76
2022/05/11 06:13:20;;;;;;;13.65;4.68;;;;;;;;;;5016065;28;20026;-76
2022/05/11 06:15:46;;;;;;;9.70;5.00;;;;;;;;;;5016662;28;20445;-75
2022/05/11 06:18:11;;;;;;;6.50;4.35;;;;;;;;;;5015386;28;20022;-76
2022/05/11 06:20:37;;;;;;;10.73;4.53;;;;;;;;;;5015824;28;20022;-75
2022/05/11 06:23:04;;;;;;;9.45;5.00;;;;;;;;;;5016350;28;20029;-74
2022/05/11 06:25:31;;;;;;;11.23;4.78;;;;;;;;;;5015687;28;20033;-75
2022/05/11 06:28:00;;;;;;;7.43;4.90;;;;;;;;;;5014384;28;20546;-74
2022/05/11 06:30:27;;;;;;;11.32;4.80;;;;;;;;;;5016304;28;20041;-75
2022/05/11 06:32:53;;;;;;;6.13;4.70;;;;;;;;;;5015668;28;20029;-75
2022/05/11 06:35:19;;;;;;;10.90;4.50;;;;;;;;;;5015801;28;20021;-74
2022/05/11 06:37:44;;;;;;;10.77;4.60;;;;;;;;;;5015716;28;20038;-74
2022/05/11 06:40:11;;;;;;;18.30;4.63;;;;;;;;;;5015966;28;20028;-75
2022/05/11 06:42:37;;;;;;;8.98;4.25;;;;;;;;;;5014207;28;20390;-75
2022/05/11 06:45:05;;;;;;;7.43;4.55;;;;;;;;;;5015444;28;20034;-75
2022/05/11 06:47:30;;;;;;;6.97;4.20;;;;;;;;;;5015384;28;20059;-75
2022/05/11 06:49:55;;;;;;;9.47;4.27;;;;;;;;;;5015111;28;20022;-74
2022/05/11 06:52:20;;;;;;;10.53;4.97;;;;;;;;;;5013588;28;20268;-74
2022/05/11 07:00:14;;;;;;;5.63;4.45;;;;;;;;;;5015209;28;20028;-75
2022/05/11 07:02:40;;;;;;;8.85;4.60;;;;;;;;;;5013883;28;20469;-75
2022/05/11 07:05:06;;;;;;;7.47;4.70;;;;;;;;;;5014461;28;20022;-75
2022/05/11 07:07:32;;;;;;;7.32;4.30;;;;;;;;;;5015218;28;20024;-75
2022/05/11 07:09:57;;;;;;;8.30;4.28;;;;;;;;;;5015698;28;20026;-75
2022/05/11 07:12:25;;;;;;;8.13;3.90;;;;;;;;;;5016093;28;20026;-75
2022/05/11 07:14:57;;;;;;;5.35;4.07;;;;;;;;;;5015084;28;20255;-76
2022/05/11 07:17:46;;;;;;;6.85;4.50;;;;;;;;;;5013573;28;20544;-75
2022/05/11 07:20:15;;;;;;;8.70;4.50;;;;;;;;;;5013679;28;20128;-76
2022/05/11 07:22:41;;;;;;;6.68;4.13;;;;;;;;;;5015036;28;20395;-74
2022/05/11 07:25:12;;;;;;;6.22;3.92;;;;;;;;;;5014817;28;20131;-75
2022/05/11 07:27:38;;;;;;;9.00;4.22;;;;;;;;;;5013898;28;20022;-75
2022/05/11 07:30:06;;;;;;;7.75;3.90;;;;;;;;;;5015228;28;20376;-75
2022/05/11 07:32:31;;;;;;;8.77;3.90;;;;;;;;;;5014740;28;20022;-75
2022/05/11 07:34:56;;;;;;;8.10;4.20;;;;;;;;;;5014747;28;20076;-75
2022/05/11 07:37:22;;;;;;;8.53;3.90;;;;;;;;;;5014706;28;20317;-74
2022/05/11 07:39:47;;;;;;;10.57;4.10;;;;;;;;;;5014991;28;20297;-75
2022/05/11 07:42:13;;;;;;;9.18;3.72;;;;;;;;;;5014546;28;20463;-75
2022/05/11 07:44:39;;;;;;;6.97;3.40;;;;;;;;;;5014728;28;20026;-75
2022/05/11 07:47:05;;;;;;;4.25;3.08;;;;;;;;;;5015124;28;20022;-75
2022/05/11 07:49:30;;;;;;;4.25;3.20;;;;;;;;;;5014985;28;20365;-74
2022/05/11 07:51:55;;;;;;;5.97;3.10;;;;;;;;;;5013313;28;20030;-74
2022/05/11 07:54:20;;;;;;;6.25;3.10;;;;;;;;;;5014992;28;20263;-76
2022/05/11 08:02:14;;;;;;;;;;;;;;;;;;5015950;28;20068;-76
2022/05/11 08:04:41;;;;;;;5.28;3.17;;;;;;;;;;5015094;28;19909;-75
2022/05/11 08:07:06;;;;;;;4.57;3.30;;;;;;;;;;5014853;28;20162;-74
2022/05/11 08:09:32;;;;;;;4.30;3.40;;;;;;;;;;5014812;28;20017;-74
2022/05/11 08:11:57;;;;;;;3.92;2.92;;;;;;;;;;5013913;28;20026;-75
2022/05/11 08:14:23;;;;;;;7.40;3.17;;;;;;;;;;5014133;28;20561;-74
2022/05/11 08:16:52;;;;;;;6.82;3.15;;;;;;;;;;5014112;28;20784;-75
2022/05/11 08:19:21;;;;;;;4.55;3.40;;;;;;;;;;5014509;28;20029;-74
2022/05/11 08:21:48;;;;;;;6.22;2.90;;;;;;;;;;5012714;28;20022;-74
2022/05/11 08:24:15;;;;;;;6.20;3.25;;;;;;;;;;5013903;28;20119;-74
2022/05/11 08:26:41;;;;;;;6.30;3.30;;;;;;;;;;5013874;28;20022;-74
2022/05/11 08:29:07;;;;;;;4.47;2.92;;;;;;;;;;5013513;28;20021;-75
2022/05/11 08:34:17;;;;;;;4.15;3.17;;;;;;;;;;5013891;28;20513;-74
2022/05/11 08:36:45;;;;;;;6.45;2.90;;;;;;;;;;5013677;28;20049;-74
2022/05/11 08:39:10;;;;;;;13.88;2.95;;;;;;;;;;5012517;28;20030;-74
2022/05/11 08:41:49;;;;;;;5.25;2.88;;;;;;;;;;5013724;28;20025;-75
2022/05/11 08:44:27;;;;;;;9.43;2.85;;;;;;;;;;5013506;28;20022;-77
2022/05/11 08:47:18;;;;;;;5.50;2.90;;;;;;;;;;5013651;28;20483;-75
2022/05/11 08:49:48;;;;;;;7.30;2.90;;;;;;;;;;5013561;28;20501;-73
2022/05/11 08:52:48;;;;;;;6.30;2.95;;;;;;;;;;5012829;28;20053;-73
2022/05/11 08:55:37;;;;;;;4.85;3.03;;;;;;;;;;5012495;28;20121;-73
2022/05/11 08:58:11;;;;;;;7.65;2.95;;;;;;;;;;5013367;28;20480;-75
2022/05/11 09:00:40;;;;;;;4.30;2.80;;;;;;;;;;5012631;28;20072;-75
2022/05/11 09:03:14;;;;;;;11.15;2.88;;;;;;;;;;5013880;28;20029;-74
2022/05/11 09:05:39;;;;;;;7.55;3.25;;;;;;;;;;5013700;28;20030;-75
2022/05/11 09:08:10;;;;;;;9.38;2.83;;;;;;;;;;5013345;28;20018;-75
2022/05/11 09:10:38;;;;;;;11.15;3.35;;;;;;;;;;5013603;28;20026;-74
2022/05/11 09:13:09;;;;;;;7.68;2.90;;;;;;;;;;5013498;28;20030;-74
2022/05/11 09:15:49;;;;;;;9.07;3.33;;;;;;;;;;5013335;28;20364;-74
2022/05/11 09:18:15;;;;;;;8.18;2.95;;;;;;;;;;5011708;28;20033;-74
2022/05/11 09:20:47;;;;;;;9.25;2.80;;;;;;;;;;5013198;28;20121;-75
2022/05/11 09:23:12;;;;;;;9.00;2.90;;;;;;;;;;5013465;28;20435;-74
2022/05/11 09:25:55;;;;;;;6.78;2.65;;;;;;;;;;5013156;28;20033;-75
2022/05/11 09:28:25;;;;;;;5.32;2.78;;;;;;;;;;5015282;28;20052;-74
2022/05/11 09:31:01;;;;;;;22.35;2.70;;;;;;;;;;5016819;28;20034;-74
2022/05/11 09:33:32;;;;;;;6.05;2.90;;;;;;;;;;5016694;28;20025;-74
2022/05/11 09:36:01;;;;;;;10.93;2.75;;;;;;;;;;5017566;28;20057;-73
2022/05/11 09:38:33;;;;;;;5.47;2.75;;;;;;;;;;5016647;28;20105;-75
2022/05/11 09:41:13;;;;;;;6.97;2.67;;;;;;;;;;5016704;28;20034;-73
2022/05/11 09:43:50;;;;;;;4.28;2.47;;;;;;;;;;5016710;28;20033;-74
2022/05/11 09:46:27;;;;;;;4.63;2.47;;;;;;;;;;5016774;28;20109;-76
2022/05/11 09:49:04;;;;;;;7.07;2.53;;;;;;;;;;5016546;28;20091;-74
2022/05/11 09:51:38;;;;;;;4.80;2.50;;;;;;;;;;5016493;28;20510;-74
2022/05/11 09:54:18;;;;;;;;;;;;;;;;;;5016999;28;20036;-74
2022/05/11 09:56:53;;;;;;;4.05;2.70;;;;;;;;;;5016161;28;20000;-74
2022/05/11 09:59:28;;;;;;;7.80;2.70;;;;;;;;;;5016232;28;20487;-75
2022/05/11 10:01:59;;;;;;;8.05;2.63;;;;;;;;;;5016165;28;20033;-75
2022/05/11 10:04:31;;;;;;;3.75;2.72;;;;;;;;;;5016240;28;20079;-74
2022/05/11 10:06:57;;;;;;;4.38;2.60;;;;;;;;;;5015004;28;20068;-75
2022/05/11 10:09:37;;;;;;;4.35;2.42;;;;;;;;;;5014728;28;20048;-75
2022/05/11 10:12:05;;;;;;;7.55;3.25;;;;;;;;;;5016460;28;20087;-74
2022/05/11 10:23:19;;;;;;;5.25;2.70;;;;;;;;;;5018879;28;20004;-74
2022/05/11 10:25:54;;;;;;;4.63;2.70;;;;;;;;;;5018683;28;20045;-74
2022/05/11 10:28:49;;;;;;;4.28;2.50;;;;;;;;;;5018513;28;20046;-75
2022/05/11 10:31:29;;;;;;;7.63;2.60;;;;;;;;;;5015708;28;20038;-75
2022/05/11 10:34:19;;;;;;;4.22;2.70;;;;;;;;;;5021016;28;20025;-74
2022/05/11 10:37:09;;;;;;;4.30;2.70;;;;;;;;;;5020092;28;20029;-74
2022/05/11 10:40:09;;;;;;;13.13;2.60;;;;;;;;;;5013662;28;20076;-74
2022/05/11 10:42:36;;;;;;;8.95;2.63;;;;;;;;;;5020071;28;20061;-74
2022/05/11 10:45:14;;;;;;;5.63;2.60;;;;;;;;;;5019789;28;20034;-74
2022/05/11 10:47:58;;;;;;;3.42;2.55;;;;;;;;;;5019064;28;20041;-74
2022/05/11 10:50:34;;;;;;;8.05;2.42;;;;;;;;;;5016390;28;20034;-75
2022/05/11 10:53:08;;;;;;;3.03;2.40;;;;;;;;;;5015193;28;20036;-75
2022/05/11 10:55:51;;;;;;;5.80;2.78;;;;;;;;;;5013888;28;20157;-75
2022/05/11 10:58:34;;;;;;;7.07;2.67;;;;;;;;;;5015218;28;20022;-75
2022/05/11 11:01:14;;;;;;;4.35;2.60;;;;;;;;;;5013721;28;20041;-74
2022/05/11 11:03:55;;;;;;;6.60;2.63;;;;;;;;;;5015026;28;20387;-75
2022/05/11 11:09:45;;;;;;;4.60;2.55;;;;;;;;;;5015125;28;20060;-74
2022/05/11 11:12:49;;;;;;;6.28;2.38;;;;;;;;;;5014908;28;20052;-76
2022/05/11 11:15:19;;;;;;;6.65;2.42;;;;;;;;;;5014842;28;20022;-76
2022/05/11 11:17:46;;;;;;;4.18;2.40;;;;;;;;;;5014886;28;20108;-75
2022/05/11 11:20:17;;;;;;;4.65;2.35;;;;;;;;;;5014563;28;20491;-74
2022/05/11 11:23:13;;;;;;;4.68;2.60;;;;;;;;;;5014462;28;20061;-75
2022/05/11 11:25:51;;;;;;;3.55;2.70;;;;;;;;;;5014695;28;20025;-75
2022/05/11 11:28:17;;;;;;;6.20;2.42;;;;;;;;;;5014849;28;20104;-75
2022/05/11 11:31:05;;;;;;;5.68;2.42;;;;;;;;;;5014403;28;20061;-76
2022/05/11 11:33:33;;;;;;;5.90;3.05;;;;;;;;;;5013176;28;20120;-75
2022/05/11 11:36:05;;;;;;;9.27;2.78;;;;;;;;;;5013178;28;20057;-75
2022/05/11 11:38:47;;;;;;;4.20;2.45;;;;;;;;;;5014252;28;20036;-75
2022/05/11 11:41:20;;;;;;;5.57;2.40;;;;;;;;;;5014442;28;20372;-75
2022/05/11 11:43:53;;;;;;;4.03;2.92;;;;;;;;;;5013978;28;20033;-74
2022/05/11 11:46:42;;;;;;;9.13;2.58;;;;;;;;;;5012992;28;20037;-76
2022/05/11 11:49:17;;;;;;;6.28;2.30;;;;;;;;;;5014356;28;20021;-75
2022/05/11 11:51:54;;;;;;;3.25;2.45;;;;;;;;;;5013617;28;20030;-74
2022/05/11 11:54:49;;;;;;;6.88;2.70;;;;;;;;;;5012726;28;20022;-74
2022/05/11 11:57:16;;;;;;;7.47;2.15;;;;;;;;;;5001219;28;20063;-75
2022/05/11 11:59:44;;;;;;;3.78;2.15;;;;;;;;;;5013879;28;20156;-75
2022/05/11 12:02:29;;;;;;;7.65;2.50;;;;;;;;;;5013950;28;20037;-75
2022/05/11 12:04:57;;;;;;;6.03;2.20;;;;;;;;;;5013889;28;20398;-75
2022/05/11 12:16:08;;;;;;;6.93;2.20;;;;;;;;;;5013960;28;20104;-74
2022/05/11 12:18:40;;;;;;;6.53;2.20;;;;;;;;;;5013643;28;20030;-76
2022/05/11 12:21:25;;;;;;;4.80;2.17;;;;;;;;;;5013010;28;20033;-75
2022/05/11 12:23:51;;;;;;;4.53;2.40;;;;;;;;;;5013978;28;20117;-75
2022/05/11 12:26:29;;;;;;;6.15;2.55;;;;;;;;;;5013605;28;20084;-74
2022/05/11 12:31:53;;;;;;;8.32;2.22;;;;;;;;;;5014037;28;20113;-76
2022/05/11 12:34:24;;;;;;;3.15;2.00;;;;;;;;;;5012152;28;20022;-75
2022/05/11 12:36:51;;;;;;;4.38;2.35;;;;;;;;;;5013262;28;20037;-75
2022/05/11 12:39:28;;;;;;;8.57;2.13;;;;;;;;;;5013307;28;20026;-76
2022/05/11 12:41:53;;;;;;;6.28;2.38;;;;;;;;;;5013518;28;20026;-76
2022/05/11 12:44:28;;;;;;;3.57;2.10;;;;;;;;;;5013494;28;20018;-76
2022/05/11 12:46:56;;;;;;;6.78;2.10;;;;;;;;;;5013544;28;20030;-76
2022/05/11 12:49:21;;;;;;;6.47;2.00;;;;;;;;;;5013497;28;20083;-76
2022/05/11 12:51:52;;;;;;;4.80;2.08;;;;;;;;;;5013086;28;20112;-76
2022/05/11 12:54:22;;;;;;;4.85;2.20;;;;;;;;;;5013571;28;20549;-74
2022/05/11 12:57:02;;;;;;;7.20;2.10;;;;;;;;;;5013187;28;20030;-77
2022/05/11 12:59:29;;;;;;;4.22;2.15;;;;;;;;;;5013272;28;20418;-76
2022/05/11 13:02:13;;;;;;;5.03;2.17;;;;;;;;;;5013089;28;20368;-76
2022/05/11 13:04:51;;;;;;;7.90;2.47;;;;;;;;;;5017134;28;20017;-76
2022/05/11 13:07:18;;;;;;;5.38;2.05;;;;;;;;;;5017042;28;20054;-74
2022/05/11 13:09:46;;;;;;;3.20;2.50;;;;;;;;;;5017265;28;20044;-74
2022/05/11 13:12:14;;;;;;;11.68;2.15;;;;;;;;;;5017132;28;20030;-74
2022/05/11 13:14:48;;;;;;;11.75;2.20;;;;;;;;;;5015697;28;20117;-75
2022/05/11 13:17:47;;;;;;;3.10;2.00;;;;;;;;;;5016956;28;20030;-74
2022/05/11 13:20:18;;;;;;;4.30;2.40;;;;;;;;;;4984308;28;20128;-75
2022/05/11 13:22:51;;;;;;;7.75;2.30;;;;;;;;;;5016784;28;20037;-75
2022/05/11 13:25:38;;;;;;;8.10;2.35;;;;;;;;;;5016927;28;20185;-75
2022/05/11 13:28:22;;;;;;;4.15;2.13;;;;;;;;;;5015395;28;20033;-74
2022/05/11 13:30:48;;;;;;;11.77;2.28;;;;;;;;;;5016998;28;20025;-75
2022/05/11 13:33:33;;;;;;;5.85;2.38;;;;;;;;;;5016930;28;20037;-75
2022/05/11 13:36:12;;;;;;;10.20;2.13;;;;;;;;;;5016913;28;20080;-75
2022/05/11 13:38:48;;;;;;;5.53;2.20;;;;;;;;;;5016753;28;20076;-75
2022/05/11 13:41:18;;;;;;;4.07;2.50;;;;;;;;;;5016561;28;20021;-75
2022/05/11 13:43:50;;;;;;;4.63;2.20;;;;;;;;;;5016715;28;20021;-75
2022/05/11 13:48:11;;;;;;;4.32;2.10;;;;;;;;;;5016500;28;20539;-75
2022/05/11 13:49:29;;;;;;;4.80;2.20;;;;;;;;;;5016331;28;20034;-75
2022/05/11 13:51:55;;;;;;;3.08;2.10;;;;;;;;;;5016445;28;20395;-75
2022/05/11 13:54:26;;;;;;;3.30;2.30;;;;;;;;;;5016319;28;20111;-75
2022/05/11 13:57:01;;;;;;;8.95;2.15;;;;;;;;;;5016332;28;20495;-74
2022/05/11 13:59:28;;;;;;;5.03;2.33;;;;;;;;;;5016011;28;20060;-75
2022/05/11 14:01:53;;;;;;;5.57;2.10;;;;;;;;;;5016030;28;20083;-75
2022/05/11 14:04:46;;;;;;;9.30;2.30;;;;;;;;;;5016175;28;20029;-74
2022/05/11 14:07:23;;;;;;;6.63;2.22;;;;;;;;;;5012553;28;20036;-75
2022/05/11 14:09:49;;;;;;;7.18;2.20;;;;;;;;;;5016215;28;20045;-76
2022/05/11 14:12:14;;;;;;;5.47;2.00;;;;;;;;;;5015864;28;20391;-75
2022/05/11 14:14:39;;;;;;;3.40;2.13;;;;;;;;;;5015664;28;20065;-75
2022/05/11 14:17:08;;;;;;;5.47;2.33;;;;;;;;;;5015780;28;20501;-75
2022/05/11 14:19:35;;;;;;;9.05;2.60;;;;;;;;;;5015802;28;20553;-76
2022/05/11 14:22:03;;;;;;;5.35;2.20;;;;;;;;;;5015692;28;20084;-74
2022/05/11 14:24:28;;;;;;;3.30;2.28;;;;;;;;;;5015521;28;20030;-75
2022/05/11 14:26:53;;;;;;;3.70;2.20;;;;;;;;;;5015725;28;20076;-76
2022/05/11 14:29:19;;;;;;;6.33;2.17;;;;;;;;;;5015546;28;20025;-75
2022/05/11 14:31:45;;;;;;;10.63;2.42;;;;;;;;;;5015469;28;20337;-75
2022/05/11 14:34:15;;;;;;;4.85;2.28;;;;;;;;;;5014177;28;20030;-75
2022/05/11 14:36:44;;;;;;;6.22;2.08;;;;;;;;;;5015300;28;20018;-75
2022/05/11 14:39:10;;;;;;;5.82;2.40;;;;;;;;;;5014202;28;20030;-76
2022/05/11 14:41:35;;;;;;;5.32;2.38;;;;;;;;;;5015477;28;20056;-75
2022/05/11 14:44:01;;;;;;;5.53;2.20;;;;;;;;;;5015293;28;20026;-75
2022/05/11 14:46:27;;;;;;;3.42;2.33;;;;;;;;;;5015278;28;20029;-74
2022/05/11 14:48:55;;;;;;;5.53;2.03;;;;;;;;;;5015373;28;20041;-75
2022/05/11 14:51:20;;;;;;;6.20;2.60;;;;;;;;;;5014965;28;20554;-75
2022/05/11 14:53:47;;;;;;;6.78;2.05;;;;;;;;;;5015167;28;20045;-75
2022/05/11 14:56:14;;;;;;;5.60;2.33;;;;;;;;;;5013890;28;20479;-75
2022/05/11 15:04:14;;;;;;;4.75;2.28;;;;;;;;;;5015163;28;20041;-74
2022/05/11 15:06:41;;;;;;;5.40;2.40;;;;;;;;;;5015187;28;20040;-74
2022/05/11 15:09:07;;;;;;;3.13;2.10;;;;;;;;;;5013538;28;20026;-75
2022/05/11 15:14:26;;;;;;;7.78;2.53;;;;;;;;;;5014959;28;20041;-73
2022/05/11 15:16:52;;;;;;;3.08;2.03;;;;;;;;;;5014916;28;20033;-76
2022/05/11 15:19:18;;;;;;;5.00;2.30;;;;;;;;;;5014908;28;20038;-75
2022/05/11 15:21:43;;;;;;;4.20;2.30;;;;;;;;;;5014542;28;20030;-75
2022/05/11 15:24:08;;;;;;;6.83;2.07;;;;;;;;;;5013361;28;20058;-75
2022/05/11 15:26:33;;;;;;;6.50;2.33;;;;;;;;;;5013962;28;20263;-75
2022/05/11 15:28:59;;;;;;;5.30;2.27;;;;;;;;;;5014391;28;20629;-75
2022/05/11 15:31:24;;;;;;;5.10;2.23;;;;;;;;;;5014661;28;20305;-75
2022/05/11 15:33:49;;;;;;;5.55;2.22;;;;;;;;;;5014576;28;20033;-75
2022/05/11 15:36:14;;;;;;;4.33;2.27;;;;;;;;;;5013202;28;20029;-75
2022/05/11 15:38:39;;;;;;;6.70;2.70;;;;;;;;;;5014286;28;20788;-75
2022/05/11 15:41:07;;;;;;;4.57;2.33;;;;;;;;;;5014563;28;20502;-75
2022/05/11 15:43:33;;;;;;;4.30;2.20;;;;;;;;;;5014074;28;20030;-75
2022/05/11 15:46:00;;;;;;;5.05;2.45;;;;;;;;;;5014160;28;20030;-75
2022/05/11 15:48:25;;;;;;;5.00;2.22;;;;;;;;;;5014100;28;20387;-75
2022/05/11 15:50:50;;;;;;;4.20;2.47;;;;;;;;;;5013984;28;20032;-75
2022/05/11 15:53:21;;;;;;;7.18;2.40;;;;;;;;;;5014305;28;20258;-75
2022/05/11 15:55:47;;;;;;;3.90;2.20;;;;;;;;;;5014232;28;20120;-75